sensor_id;sensor_type;location;lat;lon;timestamp;P1;durP1;ratioP1;P2;durP2;ratioP2
26474;SDS011;14161;52.270;10.334;2022-07-23T00:00:53;5.32;;;2.95;;
26474;SDS011;14161;52.270;10.334;2022-07-23T00:03:19;6.90;;;3.65;;
26474;SDS011;14161;52.270;10.334;2022-07-23T00:05:44;4.38;;;3.28;;
26474;SDS011;14161;52.270;10.334;2022-07-23T00:08:09;5.28;;;3.45;;
26474;SDS011;14161;52.270;10.334;2022-07-23T00:10:35;4.30;;;3.00;;
26474;SDS011;14161;52.270;10.334;2022-07-23T00:13:01;5.05;;;3.28;;
26474;SDS011;14161;52.270;10.334;2022-07-23T00:15:26;6.22;;;3.45;;
26474;SDS011;14161;52.270;10.334;2022-07-23T00:17:52;7.20;;;3.22;;
26474;SDS011;14161;52.270;10.334;2022-07-23T00:20:17;5.60;;;2.92;;
26474;SDS011;14161;52.270;10.334;2022-07-23T00:22:47;5.85;;;3.10;;
26474;SDS011;14161;52.270;10.334;2022-07-23T00:25:13;6.32;;;2.88;;
26474;SDS011;14161;52.270;10.334;2022-07-23T00:27:39;6.30;;;3.30;;
26474;SDS011;14161;52.270;10.334;2022-07-23T00:30:05;5.57;;;3.17;;
26474;SDS011;14161;52.270;10.334;2022-07-23T00:32:31;5.57;;;3.15;;
26474;SDS011;14161;52.270;10.334;2022-07-23T00:34:56;4.18;;;2.88;;
26474;SDS011;14161;52.270;10.334;2022-07-23T00:37:22;4.53;;;3.60;;
26474;SDS011;14161;52.270;10.334;2022-07-23T00:39:47;4.25;;;3.08;;
26474;SDS011;14161;52.270;10.334;2022-07-23T00:42:13;4.20;;;3.17;;
26474;SDS011;14161;52.270;10.334;2022-07-23T00:44:38;3.83;;;2.85;;
26474;SDS011;14161;52.270;10.334;2022-07-23T00:47:04;5.38;;;3.15;;
26474;SDS011;14161;52.270;10.334;2022-07-23T00:49:30;3.33;;;2.75;;
26474;SDS011;14161;52.270;10.334;2022-07-23T00:51:56;7.65;;;3.47;;
26474;SDS011;14161;52.270;10.334;2022-07-23T00:54:23;3.85;;;3.25;;
26474;SDS011;14161;52.270;10.334;2022-07-23T00:56:50;4.70;;;3.63;;
26474;SDS011;14161;52.270;10.334;2022-07-23T00:59:16;4.55;;;3.55;;
26474;SDS011;14161;52.270;10.334;2022-07-23T01:01:42;5.90;;;3.97;;
26474;SDS011;14161;52.270;10.334;2022-07-23T01:04:09;5.68;;;3.50;;
26474;SDS011;14161;52.270;10.334;2022-07-23T01:06:36;4.82;;;3.55;;
26474;SDS011;14161;52.270;10.334;2022-07-23T01:09:03;6.50;;;3.58;;
26474;SDS011;14161;52.270;10.334;2022-07-23T01:11:29;4.35;;;3.78;;
26474;SDS011;14161;52.270;10.334;2022-07-23T01:13:55;5.05;;;3.85;;
26474;SDS011;14161;52.270;10.334;2022-07-23T01:16:23;6.00;;;3.83;;
26474;SDS011;14161;52.270;10.334;2022-07-23T01:18:49;4.95;;;4.10;;
26474;SDS011;14161;52.270;10.334;2022-07-23T01:21:14;6.70;;;4.18;;
26474;SDS011;14161;52.270;10.334;2022-07-23T01:23:43;4.45;;;4.05;;
26474;SDS011;14161;52.270;10.334;2022-07-23T01:26:08;7.90;;;4.25;;
26474;SDS011;14161;52.270;10.334;2022-07-23T01:28:34;6.85;;;4.32;;
26474;SDS011;14161;52.270;10.334;2022-07-23T01:30:59;6.70;;;4.15;;
26474;SDS011;14161;52.270;10.334;2022-07-23T01:33:30;5.97;;;4.20;;
26474;SDS011;14161;52.270;10.334;2022-07-23T01:35:55;5.63;;;4.65;;
26474;SDS011;14161;52.270;10.334;2022-07-23T01:38:23;5.97;;;4.43;;
26474;SDS011;14161;52.270;10.334;2022-07-23T01:40:49;8.57;;;4.45;;
26474;SDS011;14161;52.270;10.334;2022-07-23T01:43:14;7.10;;;4.32;;
26474;SDS011;14161;52.270;10.334;2022-07-23T01:45:40;8.10;;;4.65;;
26474;SDS011;14161;52.270;10.334;2022-07-23T01:48:06;5.30;;;4.38;;
26474;SDS011;14161;52.270;10.334;2022-07-23T01:50:32;6.63;;;4.35;;
26474;SDS011;14161;52.270;10.334;2022-07-23T01:53:07;5.13;;;4.10;;
26474;SDS011;14161;52.270;10.334;2022-07-23T01:55:35;8.63;;;4.57;;
26474;SDS011;14161;52.270;10.334;2022-07-23T01:58:01;5.30;;;3.80;;
26474;SDS011;14161;52.270;10.334;2022-07-23T02:00:28;7.22;;;3.85;;
26474;SDS011;14161;52.270;10.334;2022-07-23T02:02:54;6.43;;;3.92;;
26474;SDS011;14161;52.270;10.334;2022-07-23T02:05:21;8.13;;;4.75;;
26474;SDS011;14161;52.270;10.334;2022-07-23T02:07:46;6.53;;;4.28;;
26474;SDS011;14161;52.270;10.334;2022-07-23T02:10:12;6.93;;;4.10;;
26474;SDS011;14161;52.270;10.334;2022-07-23T02:12:37;5.15;;;4.30;;
26474;SDS011;14161;52.270;10.334;2022-07-23T02:15:03;5.47;;;4.07;;
26474;SDS011;14161;52.270;10.334;2022-07-23T02:17:29;6.57;;;4.43;;
26474;SDS011;14161;52.270;10.334;2022-07-23T02:19:54;7.60;;;4.90;;
26474;SDS011;14161;52.270;10.334;2022-07-23T02:22:21;6.65;;;4.15;;
26474;SDS011;14161;52.270;10.334;2022-07-23T02:24:48;4.70;;;3.58;;
26474;SDS011;14161;52.270;10.334;2022-07-23T02:27:13;5.10;;;3.92;;
26474;SDS011;14161;52.270;10.334;2022-07-23T02:29:39;5.82;;;4.10;;
26474;SDS011;14161;52.270;10.334;2022-07-23T02:32:05;7.13;;;4.53;;
26474;SDS011;14161;52.270;10.334;2022-07-23T02:34:30;5.90;;;3.75;;
26474;SDS011;14161;52.270;10.334;2022-07-23T02:36:56;5.88;;;4.05;;
26474;SDS011;14161;52.270;10.334;2022-07-23T02:39:22;5.10;;;4.53;;
26474;SDS011;14161;52.270;10.334;2022-07-23T02:41:47;6.00;;;4.45;;
26474;SDS011;14161;52.270;10.334;2022-07-23T02:44:13;5.80;;;4.53;;
26474;SDS011;14161;52.270;10.334;2022-07-23T02:46:41;7.32;;;3.90;;
26474;SDS011;14161;52.270;10.334;2022-07-23T02:49:07;4.47;;;3.95;;
26474;SDS011;14161;52.270;10.334;2022-07-23T02:51:32;6.90;;;4.43;;
26474;SDS011;14161;52.270;10.334;2022-07-23T02:54:02;7.68;;;4.30;;
26474;SDS011;14161;52.270;10.334;2022-07-23T02:56:27;5.53;;;4.88;;
26474;SDS011;14161;52.270;10.334;2022-07-23T02:58:53;6.15;;;4.78;;
26474;SDS011;14161;52.270;10.334;2022-07-23T03:01:19;9.77;;;5.20;;
26474;SDS011;14161;52.270;10.334;2022-07-23T03:03:45;6.15;;;4.90;;
26474;SDS011;14161;52.270;10.334;2022-07-23T03:06:11;6.90;;;5.35;;
26474;SDS011;14161;52.270;10.334;2022-07-23T03:08:38;6.25;;;4.78;;
26474;SDS011;14161;52.270;10.334;2022-07-23T03:11:03;7.20;;;4.65;;
26474;SDS011;14161;52.270;10.334;2022-07-23T03:13:29;5.88;;;4.75;;
26474;SDS011;14161;52.270;10.334;2022-07-23T03:15:54;5.30;;;4.30;;
26474;SDS011;14161;52.270;10.334;2022-07-23T03:18:21;6.50;;;4.53;;
26474;SDS011;14161;52.270;10.334;2022-07-23T03:20:47;5.10;;;4.28;;
26474;SDS011;14161;52.270;10.334;2022-07-23T03:23:12;6.55;;;5.00;;
26474;SDS011;14161;52.270;10.334;2022-07-23T03:25:38;5.45;;;4.38;;
26474;SDS011;14161;52.270;10.334;2022-07-23T03:28:04;5.97;;;4.25;;
26474;SDS011;14161;52.270;10.334;2022-07-23T03:30:30;6.63;;;5.07;;
26474;SDS011;14161;52.270;10.334;2022-07-23T03:32:55;6.68;;;5.00;;
26474;SDS011;14161;52.270;10.334;2022-07-23T03:35:21;6.10;;;4.40;;
26474;SDS011;14161;52.270;10.334;2022-07-23T03:38:05;7.13;;;4.82;;
26474;SDS011;14161;52.270;10.334;2022-07-23T03:40:30;6.93;;;4.85;;
26474;SDS011;14161;52.270;10.334;2022-07-23T03:42:56;8.63;;;5.05;;
26474;SDS011;14161;52.270;10.334;2022-07-23T03:45:21;6.53;;;4.85;;
26474;SDS011;14161;52.270;10.334;2022-07-23T03:47:47;7.05;;;5.00;;
26474;SDS011;14161;52.270;10.334;2022-07-23T03:50:13;6.40;;;4.93;;
26474;SDS011;14161;52.270;10.334;2022-07-23T03:52:38;8.85;;;5.32;;
26474;SDS011;14161;52.270;10.334;2022-07-23T03:55:04;7.30;;;4.45;;
26474;SDS011;14161;52.270;10.334;2022-07-23T03:57:30;8.00;;;4.82;;
26474;SDS011;14161;52.270;10.334;2022-07-23T03:59:56;8.35;;;4.95;;
26474;SDS011;14161;52.270;10.334;2022-07-23T04:02:21;6.05;;;5.00;;
26474;SDS011;14161;52.270;10.334;2022-07-23T04:04:47;8.57;;;4.57;;
26474;SDS011;14161;52.270;10.334;2022-07-23T04:07:12;5.85;;;4.45;;
26474;SDS011;14161;52.270;10.334;2022-07-23T04:09:38;6.60;;;5.47;;
26474;SDS011;14161;52.270;10.334;2022-07-23T04:12:06;7.60;;;4.88;;
26474;SDS011;14161;52.270;10.334;2022-07-23T04:14:32;6.80;;;5.05;;
26474;SDS011;14161;52.270;10.334;2022-07-23T04:16:58;8.07;;;5.05;;
26474;SDS011;14161;52.270;10.334;2022-07-23T04:19:25;8.38;;;5.18;;
26474;SDS011;14161;52.270;10.334;2022-07-23T04:22:00;8.23;;;4.97;;
26474;SDS011;14161;52.270;10.334;2022-07-23T04:24:28;8.48;;;4.97;;
26474;SDS011;14161;52.270;10.334;2022-07-23T04:26:53;7.50;;;5.00;;
26474;SDS011;14161;52.270;10.334;2022-07-23T04:29:19;9.32;;;5.00;;
26474;SDS011;14161;52.270;10.334;2022-07-23T04:31:44;8.13;;;5.30;;
26474;SDS011;14161;52.270;10.334;2022-07-23T04:34:10;5.80;;;4.93;;
26474;SDS011;14161;52.270;10.334;2022-07-23T04:36:35;7.80;;;5.38;;
26474;SDS011;14161;52.270;10.334;2022-07-23T04:39:01;8.02;;;5.53;;
26474;SDS011;14161;52.270;10.334;2022-07-23T04:41:27;7.40;;;5.20;;
26474;SDS011;14161;52.270;10.334;2022-07-23T04:43:52;7.22;;;5.18;;
26474;SDS011;14161;52.270;10.334;2022-07-23T04:46:18;9.73;;;5.80;;
26474;SDS011;14161;52.270;10.334;2022-07-23T04:48:47;8.25;;;5.00;;
26474;SDS011;14161;52.270;10.334;2022-07-23T04:51:12;8.57;;;5.70;;
26474;SDS011;14161;52.270;10.334;2022-07-23T04:53:38;6.50;;;5.40;;
26474;SDS011;14161;52.270;10.334;2022-07-23T04:56:04;5.45;;;4.82;;
26474;SDS011;14161;52.270;10.334;2022-07-23T04:58:31;8.93;;;5.25;;
26474;SDS011;14161;52.270;10.334;2022-07-23T05:00:57;6.90;;;5.07;;
26474;SDS011;14161;52.270;10.334;2022-07-23T05:03:23;6.88;;;5.15;;
26474;SDS011;14161;52.270;10.334;2022-07-23T05:05:49;10.35;;;5.53;;
26474;SDS011;14161;52.270;10.334;2022-07-23T05:08:16;6.72;;;4.85;;
26474;SDS011;14161;52.270;10.334;2022-07-23T05:10:45;5.30;;;4.40;;
26474;SDS011;14161;52.270;10.334;2022-07-23T05:13:14;7.00;;;5.20;;
26474;SDS011;14161;52.270;10.334;2022-07-23T05:15:40;6.35;;;5.30;;
26474;SDS011;14161;52.270;10.334;2022-07-23T05:18:06;5.47;;;4.88;;
26474;SDS011;14161;52.270;10.334;2022-07-23T05:20:32;8.80;;;4.90;;
26474;SDS011;14161;52.270;10.334;2022-07-23T05:23:05;8.82;;;5.15;;
26474;SDS011;14161;52.270;10.334;2022-07-23T05:25:56;9.45;;;4.88;;
26474;SDS011;14161;52.270;10.334;2022-07-23T05:28:23;5.65;;;5.05;;
26474;SDS011;14161;52.270;10.334;2022-07-23T05:30:51;8.85;;;5.65;;
26474;SDS011;14161;52.270;10.334;2022-07-23T05:33:20;9.88;;;6.15;;
26474;SDS011;14161;52.270;10.334;2022-07-23T05:35:46;5.45;;;4.82;;
26474;SDS011;14161;52.270;10.334;2022-07-23T05:38:21;7.57;;;5.57;;
26474;SDS011;14161;52.270;10.334;2022-07-23T05:40:47;7.10;;;5.35;;
26474;SDS011;14161;52.270;10.334;2022-07-23T05:43:13;7.13;;;5.65;;
26474;SDS011;14161;52.270;10.334;2022-07-23T05:45:38;9.70;;;5.90;;
26474;SDS011;14161;52.270;10.334;2022-07-23T05:48:04;10.55;;;5.80;;
26474;SDS011;14161;52.270;10.334;2022-07-23T05:50:35;7.00;;;5.55;;
26474;SDS011;14161;52.270;10.334;2022-07-23T05:53:20;8.65;;;6.15;;
26474;SDS011;14161;52.270;10.334;2022-07-23T05:55:57;8.20;;;7.13;;
26474;SDS011;14161;52.270;10.334;2022-07-23T05:58:23;7.72;;;5.75;;
26474;SDS011;14161;52.270;10.334;2022-07-23T06:00:48;9.35;;;5.95;;
26474;SDS011;14161;52.270;10.334;2022-07-23T06:03:14;7.65;;;6.20;;
26474;SDS011;14161;52.270;10.334;2022-07-23T06:05:40;9.52;;;6.38;;
26474;SDS011;14161;52.270;10.334;2022-07-23T06:08:07;8.65;;;6.55;;
26474;SDS011;14161;52.270;10.334;2022-07-23T06:10:32;8.80;;;6.53;;
26474;SDS011;14161;52.270;10.334;2022-07-23T06:12:58;9.27;;;7.10;;
26474;SDS011;14161;52.270;10.334;2022-07-23T06:15:24;8.52;;;6.80;;
26474;SDS011;14161;52.270;10.334;2022-07-23T06:17:49;6.82;;;6.13;;
26474;SDS011;14161;52.270;10.334;2022-07-23T06:20:15;9.60;;;6.80;;
26474;SDS011;14161;52.270;10.334;2022-07-23T06:22:41;8.90;;;6.88;;
26474;SDS011;14161;52.270;10.334;2022-07-23T06:25:07;9.10;;;6.63;;
26474;SDS011;14161;52.270;10.334;2022-07-23T06:27:32;7.88;;;6.60;;
26474;SDS011;14161;52.270;10.334;2022-07-23T06:29:58;7.07;;;6.07;;
26474;SDS011;14161;52.270;10.334;2022-07-23T06:32:24;9.35;;;7.10;;
26474;SDS011;14161;52.270;10.334;2022-07-23T06:34:49;7.57;;;5.90;;
26474;SDS011;14161;52.270;10.334;2022-07-23T06:37:15;7.22;;;5.75;;
26474;SDS011;14161;52.270;10.334;2022-07-23T06:39:41;7.10;;;5.75;;
26474;SDS011;14161;52.270;10.334;2022-07-23T06:42:06;7.47;;;6.20;;
26474;SDS011;14161;52.270;10.334;2022-07-23T06:44:37;7.15;;;5.65;;
26474;SDS011;14161;52.270;10.334;2022-07-23T06:47:03;9.15;;;5.53;;
26474;SDS011;14161;52.270;10.334;2022-07-23T06:49:29;7.68;;;5.68;;
26474;SDS011;14161;52.270;10.334;2022-07-23T06:51:56;7.35;;;5.53;;
26474;SDS011;14161;52.270;10.334;2022-07-23T06:54:21;7.78;;;5.18;;
26474;SDS011;14161;52.270;10.334;2022-07-23T06:56:47;8.65;;;5.93;;
26474;SDS011;14161;52.270;10.334;2022-07-23T06:59:14;7.57;;;5.18;;
26474;SDS011;14161;52.270;10.334;2022-07-23T07:01:41;6.95;;;4.90;;
26474;SDS011;14161;52.270;10.334;2022-07-23T07:04:06;5.18;;;3.95;;
26474;SDS011;14161;52.270;10.334;2022-07-23T07:06:32;6.82;;;4.47;;
26474;SDS011;14161;52.270;10.334;2022-07-23T07:08:57;5.65;;;3.92;;
26474;SDS011;14161;52.270;10.334;2022-07-23T07:11:23;5.53;;;4.25;;
26474;SDS011;14161;52.270;10.334;2022-07-23T07:13:50;7.30;;;3.83;;
26474;SDS011;14161;52.270;10.334;2022-07-23T07:16:16;5.65;;;3.65;;
26474;SDS011;14161;52.270;10.334;2022-07-23T07:18:42;7.53;;;3.67;;
26474;SDS011;14161;52.270;10.334;2022-07-23T07:21:07;6.22;;;4.22;;
26474;SDS011;14161;52.270;10.334;2022-07-23T07:23:33;6.55;;;3.75;;
26474;SDS011;14161;52.270;10.334;2022-07-23T07:25:58;6.43;;;4.05;;
26474;SDS011;14161;52.270;10.334;2022-07-23T07:28:24;4.55;;;3.53;;
26474;SDS011;14161;52.270;10.334;2022-07-23T07:30:49;3.20;;;2.72;;
26474;SDS011;14161;52.270;10.334;2022-07-23T07:33:15;4.88;;;2.75;;
26474;SDS011;14161;52.270;10.334;2022-07-23T07:35:40;5.10;;;2.88;;
26474;SDS011;14161;52.270;10.334;2022-07-23T07:38:06;4.95;;;2.65;;
26474;SDS011;14161;52.270;10.334;2022-07-23T07:40:31;3.08;;;2.28;;
26474;SDS011;14161;52.270;10.334;2022-07-23T07:42:57;6.50;;;3.05;;
26474;SDS011;14161;52.270;10.334;2022-07-23T07:45:22;4.35;;;2.72;;
26474;SDS011;14161;52.270;10.334;2022-07-23T07:47:50;2.85;;;2.33;;
26474;SDS011;14161;52.270;10.334;2022-07-23T07:50:17;5.00;;;2.13;;
26474;SDS011;14161;52.270;10.334;2022-07-23T07:52:43;2.83;;;2.22;;
26474;SDS011;14161;52.270;10.334;2022-07-23T07:55:09;3.35;;;2.50;;
26474;SDS011;14161;52.270;10.334;2022-07-23T07:57:35;3.40;;;2.50;;
26474;SDS011;14161;52.270;10.334;2022-07-23T08:00:01;4.70;;;2.75;;
26474;SDS011;14161;52.270;10.334;2022-07-23T08:02:55;2.80;;;2.50;;
26474;SDS011;14161;52.270;10.334;2022-07-23T08:05:22;4.15;;;2.47;;
26474;SDS011;14161;52.270;10.334;2022-07-23T08:07:51;3.67;;;2.20;;
26474;SDS011;14161;52.270;10.334;2022-07-23T08:10:20;5.65;;;2.30;;
26474;SDS011;14161;52.270;10.334;2022-07-23T08:12:46;3.47;;;2.05;;
26474;SDS011;14161;52.270;10.334;2022-07-23T08:15:15;2.92;;;1.70;;
26474;SDS011;14161;52.270;10.334;2022-07-23T08:17:43;3.85;;;1.80;;
26474;SDS011;14161;52.270;10.334;2022-07-23T08:20:09;5.07;;;1.85;;
26474;SDS011;14161;52.270;10.334;2022-07-23T08:22:43;3.83;;;1.80;;
26474;SDS011;14161;52.270;10.334;2022-07-23T08:25:11;2.65;;;1.70;;
26474;SDS011;14161;52.270;10.334;2022-07-23T08:27:37;2.75;;;1.40;;
26474;SDS011;14161;52.270;10.334;2022-07-23T08:30:03;3.63;;;1.55;;
26474;SDS011;14161;52.270;10.334;2022-07-23T08:32:28;3.92;;;1.50;;
26474;SDS011;14161;52.270;10.334;2022-07-23T08:34:54;2.13;;;1.30;;
26474;SDS011;14161;52.270;10.334;2022-07-23T08:37:20;3.03;;;1.35;;
26474;SDS011;14161;52.270;10.334;2022-07-23T08:39:45;4.65;;;1.80;;
26474;SDS011;14161;52.270;10.334;2022-07-23T08:42:11;1.70;;;1.08;;
26474;SDS011;14161;52.270;10.334;2022-07-23T08:44:39;3.40;;;1.35;;
26474;SDS011;14161;52.270;10.334;2022-07-23T08:47:07;1.98;;;1.27;;
26474;SDS011;14161;52.270;10.334;2022-07-23T08:49:34;2.72;;;1.63;;
26474;SDS011;14161;52.270;10.334;2022-07-23T08:52:04;2.28;;;1.80;;
26474;SDS011;14161;52.270;10.334;2022-07-23T08:54:30;2.30;;;1.67;;
26474;SDS011;14161;52.270;10.334;2022-07-23T08:56:56;2.83;;;1.50;;
26474;SDS011;14161;52.270;10.334;2022-07-23T08:59:22;4.30;;;1.60;;
26474;SDS011;14161;52.270;10.334;2022-07-23T09:01:48;3.30;;;1.67;;
26474;SDS011;14161;52.270;10.334;2022-07-23T09:04:14;3.78;;;2.15;;
26474;SDS011;14161;52.270;10.334;2022-07-23T09:06:39;4.85;;;2.47;;
26474;SDS011;14161;52.270;10.334;2022-07-23T09:09:18;4.68;;;2.33;;
26474;SDS011;14161;52.270;10.334;2022-07-23T09:11:48;3.22;;;2.15;;
26474;SDS011;14161;52.270;10.334;2022-07-23T09:14:13;3.95;;;1.95;;
26474;SDS011;14161;52.270;10.334;2022-07-23T09:16:39;3.75;;;1.85;;
26474;SDS011;14161;52.270;10.334;2022-07-23T09:19:06;3.22;;;1.95;;
26474;SDS011;14161;52.270;10.334;2022-07-23T09:21:33;3.53;;;2.40;;
26474;SDS011;14161;52.270;10.334;2022-07-23T09:26:34;2.70;;;2.08;;
26474;SDS011;14161;52.270;10.334;2022-07-23T09:29:19;3.25;;;2.00;;
26474;SDS011;14161;52.270;10.334;2022-07-23T09:34:16;3.20;;;1.80;;
26474;SDS011;14161;52.270;10.334;2022-07-23T09:36:46;2.63;;;2.17;;
26474;SDS011;14161;52.270;10.334;2022-07-23T09:39:12;4.38;;;2.10;;
26474;SDS011;14161;52.270;10.334;2022-07-23T09:41:43;3.03;;;2.15;;
26474;SDS011;14161;52.270;10.334;2022-07-23T09:44:11;2.72;;;2.15;;
26474;SDS011;14161;52.270;10.334;2022-07-23T09:46:38;2.83;;;2.20;;
26474;SDS011;14161;52.270;10.334;2022-07-23T09:49:11;4.60;;;1.70;;
26474;SDS011;14161;52.270;10.334;2022-07-23T09:54:32;4.15;;;2.10;;
26474;SDS011;14161;52.270;10.334;2022-07-23T09:57:10;2.40;;;2.13;;
26474;SDS011;14161;52.270;10.334;2022-07-23T09:59:40;2.67;;;1.83;;
26474;SDS011;14161;52.270;10.334;2022-07-23T10:02:09;4.72;;;2.05;;
26474;SDS011;14161;52.270;10.334;2022-07-23T10:04:57;3.35;;;1.90;;
26474;SDS011;14161;52.270;10.334;2022-07-23T10:10:26;1.92;;;1.67;;
26474;SDS011;14161;52.270;10.334;2022-07-23T10:12:56;1.80;;;1.60;;
26474;SDS011;14161;52.270;10.334;2022-07-23T10:15:40;3.13;;;2.13;;
26474;SDS011;14161;52.270;10.334;2022-07-23T10:18:07;1.70;;;1.25;;
26474;SDS011;14161;52.270;10.334;2022-07-23T10:20:35;3.00;;;1.33;;
26474;SDS011;14161;52.270;10.334;2022-07-23T10:23:10;2.30;;;1.35;;
26474;SDS011;14161;52.270;10.334;2022-07-23T10:25:49;1.27;;;1.15;;
26474;SDS011;14161;52.270;10.334;2022-07-23T10:28:23;1.92;;;1.33;;
26474;SDS011;14161;52.270;10.334;2022-07-23T10:36:42;2.80;;;1.40;;
26474;SDS011;14161;52.270;10.334;2022-07-23T10:39:43;1.75;;;1.10;;
26474;SDS011;14161;52.270;10.334;2022-07-23T10:42:09;3.88;;;1.02;;
26474;SDS011;14161;52.270;10.334;2022-07-23T10:44:40;2.00;;;1.00;;
26474;SDS011;14161;52.270;10.334;2022-07-23T10:47:08;2.65;;;1.17;;
26474;SDS011;14161;52.270;10.334;2022-07-23T10:49:34;2.53;;;1.00;;
26474;SDS011;14161;52.270;10.334;2022-07-23T10:54:41;1.85;;;1.00;;
26474;SDS011;14161;52.270;10.334;2022-07-23T10:57:08;2.42;;;1.17;;
26474;SDS011;14161;52.270;10.334;2022-07-23T11:02:29;1.33;;;0.82;;
26474;SDS011;14161;52.270;10.334;2022-07-23T11:04:59;1.80;;;0.80;;
26474;SDS011;14161;52.270;10.334;2022-07-23T11:07:35;2.35;;;1.30;;
26474;SDS011;14161;52.270;10.334;2022-07-23T11:10:02;3.28;;;1.02;;
26474;SDS011;14161;52.270;10.334;2022-07-23T11:17:22;1.65;;;1.00;;
26474;SDS011;14161;52.270;10.334;2022-07-23T11:25:12;1.58;;;1.02;;
26474;SDS011;14161;52.270;10.334;2022-07-23T11:27:43;2.78;;;0.93;;
26474;SDS011;14161;52.270;10.334;2022-07-23T11:30:11;1.92;;;0.90;;
26474;SDS011;14161;52.270;10.334;2022-07-23T11:35:34;1.65;;;1.00;;
26474;SDS011;14161;52.270;10.334;2022-07-23T11:40:33;2.17;;;0.90;;
26474;SDS011;14161;52.270;10.334;2022-07-23T11:43:01;4.18;;;0.90;;
26474;SDS011;14161;52.270;10.334;2022-07-23T11:45:34;1.85;;;0.93;;
26474;SDS011;14161;52.270;10.334;2022-07-23T11:48:07;1.17;;;1.00;;
26474;SDS011;14161;52.270;10.334;2022-07-23T11:50:35;2.20;;;0.93;;
26474;SDS011;14161;52.270;10.334;2022-07-23T11:53:01;1.42;;;0.75;;
26474;SDS011;14161;52.270;10.334;2022-07-23T11:55:28;4.47;;;0.90;;
26474;SDS011;14161;52.270;10.334;2022-07-23T11:57:54;3.22;;;1.00;;
26474;SDS011;14161;52.270;10.334;2022-07-23T12:00:21;3.47;;;1.00;;
26474;SDS011;14161;52.270;10.334;2022-07-23T12:02:49;0.88;;;0.82;;
26474;SDS011;14161;52.270;10.334;2022-07-23T12:05:20;1.33;;;0.80;;
26474;SDS011;14161;52.270;10.334;2022-07-23T12:07:48;5.43;;;0.90;;
26474;SDS011;14161;52.270;10.334;2022-07-23T12:10:19;2.13;;;0.90;;
26474;SDS011;14161;52.270;10.334;2022-07-23T12:15:22;2.77;;;1.30;;
26474;SDS011;14161;52.270;10.334;2022-07-23T12:17:49;2.45;;;1.20;;
26474;SDS011;14161;52.270;10.334;2022-07-23T12:20:27;2.10;;;0.85;;
26474;SDS011;14161;52.270;10.334;2022-07-23T12:22:58;1.88;;;1.20;;
26474;SDS011;14161;52.270;10.334;2022-07-23T12:25:29;3.33;;;1.00;;
26474;SDS011;14161;52.270;10.334;2022-07-23T12:28:04;1.35;;;0.73;;
26474;SDS011;14161;52.270;10.334;2022-07-23T12:30:34;0.73;;;0.73;;
26474;SDS011;14161;52.270;10.334;2022-07-23T12:33:10;4.07;;;0.95;;
26474;SDS011;14161;52.270;10.334;2022-07-23T12:35:39;1.48;;;0.80;;
26474;SDS011;14161;52.270;10.334;2022-07-23T12:38:08;3.70;;;0.80;;
26474;SDS011;14161;52.270;10.334;2022-07-23T12:40:36;3.15;;;1.00;;
26474;SDS011;14161;52.270;10.334;2022-07-23T12:45:48;2.13;;;0.98;;
26474;SDS011;14161;52.270;10.334;2022-07-23T12:48:17;2.35;;;1.05;;
26474;SDS011;14161;52.270;10.334;2022-07-23T12:53:22;2.40;;;1.02;;
26474;SDS011;14161;52.270;10.334;2022-07-23T12:56:26;0.82;;;0.70;;
26474;SDS011;14161;52.270;10.334;2022-07-23T12:59:09;2.50;;;1.25;;
26474;SDS011;14161;52.270;10.334;2022-07-23T13:02:07;1.05;;;0.85;;
26474;SDS011;14161;52.270;10.334;2022-07-23T13:04:40;7.18;;;1.13;;
26474;SDS011;14161;52.270;10.334;2022-07-23T13:07:06;3.60;;;1.08;;
26474;SDS011;14161;52.270;10.334;2022-07-23T13:26:05;1.83;;;0.80;;
26474;SDS011;14161;52.270;10.334;2022-07-23T13:28:32;2.88;;;0.60;;
26474;SDS011;14161;52.270;10.334;2022-07-23T13:31:07;1.30;;;0.93;;
26474;SDS011;14161;52.270;10.334;2022-07-23T13:33:40;1.65;;;1.20;;
26474;SDS011;14161;52.270;10.334;2022-07-23T13:36:15;1.65;;;0.82;;
26474;SDS011;14161;52.270;10.334;2022-07-23T13:38:46;0.57;;;0.57;;
26474;SDS011;14161;52.270;10.334;2022-07-23T13:41:19;1.17;;;0.75;;
26474;SDS011;14161;52.270;10.334;2022-07-23T13:50:14;2.22;;;0.82;;
26474;SDS011;14161;52.270;10.334;2022-07-23T13:53:06;2.35;;;0.73;;
26474;SDS011;14161;52.270;10.334;2022-07-23T13:55:36;1.02;;;0.70;;
26474;SDS011;14161;52.270;10.334;2022-07-23T13:58:14;3.05;;;0.65;;
26474;SDS011;14161;52.270;10.334;2022-07-23T14:00:51;1.17;;;0.60;;
26474;SDS011;14161;52.270;10.334;2022-07-23T14:03:18;1.70;;;0.65;;
26474;SDS011;14161;52.270;10.334;2022-07-23T14:05:48;3.10;;;0.75;;
26474;SDS011;14161;52.270;10.334;2022-07-23T14:08:17;2.78;;;0.70;;
26474;SDS011;14161;52.270;10.334;2022-07-23T14:10:51;2.60;;;0.82;;
26474;SDS011;14161;52.270;10.334;2022-07-23T14:13:23;1.02;;;0.70;;
26474;SDS011;14161;52.270;10.334;2022-07-23T14:15:48;1.85;;;0.70;;
26474;SDS011;14161;52.270;10.334;2022-07-23T14:18:15;2.90;;;0.60;;
26474;SDS011;14161;52.270;10.334;2022-07-23T14:20:41;2.40;;;0.90;;
26474;SDS011;14161;52.270;10.334;2022-07-23T14:23:10;5.25;;;1.20;;
26474;SDS011;14161;52.270;10.334;2022-07-23T14:25:36;4.40;;;0.88;;
26474;SDS011;14161;52.270;10.334;2022-07-23T14:28:01;2.88;;;0.70;;
26474;SDS011;14161;52.270;10.334;2022-07-23T14:30:30;4.95;;;0.70;;
26474;SDS011;14161;52.270;10.334;2022-07-23T14:32:58;1.67;;;0.60;;
26474;SDS011;14161;52.270;10.334;2022-07-23T14:35:27;1.73;;;0.80;;
26474;SDS011;14161;52.270;10.334;2022-07-23T14:38:01;1.85;;;0.75;;
26474;SDS011;14161;52.270;10.334;2022-07-23T14:40:27;2.22;;;0.80;;
26474;SDS011;14161;52.270;10.334;2022-07-23T14:42:56;4.60;;;0.90;;
26474;SDS011;14161;52.270;10.334;2022-07-23T14:45:34;5.03;;;0.70;;
26474;SDS011;14161;52.270;10.334;2022-07-23T14:48:05;2.15;;;0.70;;
26474;SDS011;14161;52.270;10.334;2022-07-23T14:50:31;4.30;;;0.90;;
26474;SDS011;14161;52.270;10.334;2022-07-23T14:52:57;3.08;;;0.73;;
26474;SDS011;14161;52.270;10.334;2022-07-23T14:55:22;3.28;;;0.70;;
26474;SDS011;14161;52.270;10.334;2022-07-23T14:57:48;0.80;;;0.60;;
26474;SDS011;14161;52.270;10.334;2022-07-23T15:00:16;0.90;;;0.55;;
26474;SDS011;14161;52.270;10.334;2022-07-23T15:02:42;1.42;;;0.57;;
26474;SDS011;14161;52.270;10.334;2022-07-23T15:05:08;2.13;;;0.68;;
26474;SDS011;14161;52.270;10.334;2022-07-23T15:07:34;2.40;;;0.55;;
26474;SDS011;14161;52.270;10.334;2022-07-23T15:10:02;3.08;;;0.80;;
26474;SDS011;14161;52.270;10.334;2022-07-23T15:12:31;6.97;;;1.08;;
26474;SDS011;14161;52.270;10.334;2022-07-23T15:14:57;1.42;;;0.77;;
26474;SDS011;14161;52.270;10.334;2022-07-23T15:17:26;4.18;;;0.90;;
26474;SDS011;14161;52.270;10.334;2022-07-23T15:19:51;1.63;;;0.60;;
26474;SDS011;14161;52.270;10.334;2022-07-23T15:22:17;3.50;;;0.65;;
26474;SDS011;14161;52.270;10.334;2022-07-23T15:24:43;1.00;;;0.60;;
26474;SDS011;14161;52.270;10.334;2022-07-23T15:27:08;1.13;;;0.60;;
26474;SDS011;14161;52.270;10.334;2022-07-23T15:29:36;12.88;;;1.30;;
26474;SDS011;14161;52.270;10.334;2022-07-23T15:32:02;3.60;;;0.63;;
26474;SDS011;14161;52.270;10.334;2022-07-23T15:34:28;1.15;;;0.68;;
26474;SDS011;14161;52.270;10.334;2022-07-23T15:36:54;2.05;;;0.68;;
26474;SDS011;14161;52.270;10.334;2022-07-23T15:39:19;2.65;;;0.80;;
26474;SDS011;14161;52.270;10.334;2022-07-23T15:41:45;0.80;;;0.50;;
26474;SDS011;14161;52.270;10.334;2022-07-23T15:44:11;2.50;;;0.70;;
26474;SDS011;14161;52.270;10.334;2022-07-23T15:46:37;1.35;;;0.70;;